createdAt,value
2023-03-16T03:59:34.816Z,100148.55
2023-03-16T04:02:06.754Z,100156.02
2023-03-16T04:04:45.220Z,100157.08
2023-03-16T04:07:18.455Z,100159.58
2023-03-16T04:09:47.332Z,100160.17
2023-03-16T04:12:37.512Z,100160.52
2023-03-16T04:15:42.777Z,100160.30
2023-03-16T04:18:38.499Z,100161.15
2023-03-16T04:21:06.936Z,100160.54
2023-03-16T04:23:34.699Z,100164.58
2023-03-16T04:26:05.339Z,100165.81
2023-03-16T04:28:34.248Z,100166.08
2023-03-16T04:37:26.282Z,100172.32
2023-03-16T04:40:15.256Z,100174.05
2023-03-16T04:42:45.537Z,100172.52
2023-03-16T04:45:15.277Z,100173.14
2023-03-16T04:47:43.546Z,100178.18
2023-03-16T04:50:19.320Z,100181.91
2023-03-16T04:52:55.615Z,100182.84
2023-03-16T04:55:25.242Z,100179.59
2023-03-16T04:59:45.155Z,100186.05
2023-03-16T05:02:47.421Z,100186.98
2023-03-16T05:05:27.392Z,100189.63
2023-03-16T05:07:57.324Z,100189.64
2023-03-16T05:10:33.999Z,100193.61
2023-03-16T05:13:13.806Z,100189.01
2023-03-16T05:15:49.804Z,100188.19
2023-03-16T05:18:32.214Z,100182.85
2023-03-16T05:21:10.558Z,100185.23
2023-03-16T05:23:52.700Z,100187.08
2023-03-16T05:26:22.618Z,100183.73
2023-03-16T05:29:19.561Z,100183.86
2023-03-16T05:31:49.882Z,100181.21
2023-03-16T05:34:21.556Z,100184.18
2023-03-16T05:43:13.762Z,100182.17
2023-03-16T05:45:48.253Z,100182.73
2023-03-16T05:48:21.866Z,100177.67
2023-03-16T05:50:53.909Z,100179.90
2023-03-16T05:53:28.499Z,100184.10
2023-03-16T05:56:03.658Z,100188.36
2023-03-16T05:58:36.027Z,100190.15
2023-03-16T06:01:11.620Z,100191.23
2023-03-16T06:03:43.174Z,100192.58
2023-03-16T06:06:36.167Z,100196.61
2023-03-16T06:09:16.147Z,100200.46
2023-03-16T06:11:47.452Z,100196.80
2023-03-16T06:14:38.655Z,100200.63
2023-03-16T06:17:17.153Z,100194.73
2023-03-16T06:19:49.190Z,100187.53
2023-03-16T06:22:22.322Z,100185.15
2023-03-16T06:25:06.500Z,100186.96
2023-03-16T06:27:59.203Z,100187.30
2023-03-16T06:30:35.472Z,100188.64
2023-03-16T06:33:48.971Z,100190.52
2023-03-16T06:36:41.090Z,100192.16
2023-03-16T06:39:32.133Z,100196.09
2023-03-16T06:42:04.885Z,100195.54
2023-03-16T06:44:36.519Z,100192.00
2023-03-16T06:47:36.725Z,100191.73
2023-03-16T06:50:12.817Z,100189.61
2023-03-16T06:53:07.675Z,100192.55
2023-03-16T07:02:35.694Z,100191.23
2023-03-16T07:05:35.592Z,100186.61
2023-03-16T07:08:09.453Z,100191.98
2023-03-16T07:10:41.377Z,100191.92
2023-03-16T07:14:12.067Z,100193.45
2023-03-16T07:18:26.376Z,100189.80
2023-03-16T07:20:55.594Z,100192.55
2023-03-16T07:23:30.188Z,100196.09
2023-03-16T07:26:04.106Z,100196.39
2023-03-16T07:29:07.449Z,100191.59
2023-03-16T07:31:38.353Z,100190.18
2023-03-16T07:34:15.520Z,100193.04
2023-03-16T07:39:40.093Z,100193.09
2023-03-16T07:42:14.827Z,100192.17
2023-03-16T07:45:20.170Z,100192.48
2023-03-16T07:47:51.382Z,100194.15
2023-03-16T07:50:30.122Z,100198.08
2023-03-16T07:53:02.317Z,100199.48
2023-03-16T07:56:14.718Z,100202.57
2023-03-16T08:02:00.382Z,100204.27
2023-03-16T08:04:45.181Z,100204.09
2023-03-16T08:07:27.772Z,100200.48
2023-03-16T08:10:04.386Z,100195.70
2023-03-16T08:13:01.241Z,100198.79
2023-03-16T08:16:47.294Z,100198.13
2023-03-16T08:19:53.487Z,100196.05
2023-03-16T08:22:30.626Z,100195.65
2023-03-16T08:25:03.458Z,100194.61
2023-03-16T08:27:39.284Z,100195.07
2023-03-16T08:30:13.992Z,100191.13
2023-03-16T08:32:47.108Z,100198.19
2023-03-16T08:35:19.761Z,100198.64
2023-03-16T08:37:56.056Z,100199.93
2023-03-16T08:40:30.349Z,100200.90
2023-03-16T08:43:01.053Z,100208.67
2023-03-16T08:45:51.167Z,100214.92
2023-03-16T08:48:23.169Z,100218.33
2023-03-16T08:51:00.100Z,100219.84
2023-03-16T08:53:33.850Z,100221.39
2023-03-16T08:56:15.479Z,100219.70
2023-03-16T08:58:50.003Z,100221.77
2023-03-16T09:01:34.121Z,100223.31
2023-03-16T09:04:12.476Z,100226.48
2023-03-16T09:06:42.973Z,100229.98
2023-03-16T09:09:23.481Z,100228.61
2023-03-16T09:15:10.640Z,100226.10
2023-03-16T09:18:09.392Z,100230.05
2023-03-16T09:20:40.890Z,100227.19
2023-03-16T09:29:03.869Z,100238.69
2023-03-16T09:48:48.412Z,100231.85
2023-03-16T09:52:08.865Z,100229.41
2023-03-16T09:59:41.253Z,100231.56
2023-03-16T10:14:19.411Z,100239.63
2023-03-16T10:17:47.533Z,100235.20
2023-03-16T10:23:41.967Z,100242.60
2023-03-16T10:26:39.394Z,100243.96
2023-03-16T10:29:16.019Z,100240.52
2023-03-16T10:31:45.413Z,100239.85
2023-03-16T10:34:26.762Z,100239.99
2023-03-16T10:40:12.773Z,100238.52
2023-03-16T10:42:43.076Z,100237.58
2023-03-16T10:45:48.591Z,100231.08
2023-03-16T10:48:34.277Z,100224.69
2023-03-16T10:54:15.540Z,100213.23
2023-03-16T11:14:00.752Z,100211.50
2023-03-16T11:17:08.822Z,100211.48
2023-03-16T11:20:24.635Z,100211.22
2023-03-16T11:23:11.837Z,100209.95
2023-03-16T11:25:49.346Z,100207.15
2023-03-16T11:37:58.223Z,100208.23
2023-03-16T11:44:53.736Z,100204.86
2023-03-16T11:48:37.446Z,100198.52
2023-03-16T11:51:31.993Z,100186.18
2023-03-16T11:55:32.150Z,100188.90
2023-03-16T12:02:00.906Z,100185.10
2023-03-16T12:05:16.706Z,100184.79
2023-03-16T12:11:25.331Z,100187.55
2023-03-16T12:14:19.036Z,100185.23
2023-03-16T12:16:50.162Z,100192.64
2023-03-16T12:39:05.484Z,100202.80
2023-03-16T12:42:06.040Z,100204.91
2023-03-16T12:44:52.286Z,100207.43
2023-03-16T12:47:47.236Z,100214.90
2023-03-16T12:50:28.363Z,100219.05
2023-03-16T12:53:45.367Z,100221.39
2023-03-16T12:57:28.094Z,100215.70
2023-03-16T13:00:01.433Z,100224.33
2023-03-16T13:02:34.265Z,100221.35
2023-03-16T13:05:20.421Z,100219.20
2023-03-16T16:27:08.361Z,100393.48
2023-03-16T16:36:38.460Z,100393.31
2023-03-16T16:39:09.116Z,100397.62
2023-03-16T16:41:37.786Z,100397.89
2023-03-16T16:44:24.386Z,100399.31
2023-03-16T16:46:55.122Z,100401.34
2023-03-16T16:49:30.270Z,100401.85
2023-03-16T16:51:58.704Z,100405.26
2023-03-16T16:54:32.322Z,100410.02
2023-03-16T16:57:08.217Z,100404.98
2023-03-16T16:59:40.607Z,100404.61
2023-03-16T17:02:22.628Z,100406.67
2023-03-16T17:04:56.044Z,100411.05
2023-03-16T17:07:24.863Z,100412.99
2023-03-16T17:10:09.081Z,100414.73
2023-03-16T17:13:09.038Z,100415.88
2023-03-16T17:15:50.956Z,100424.98
2023-03-16T17:18:23.186Z,100426.63
2023-03-16T17:20:52.869Z,100430.27
2023-03-16T17:23:33.480Z,100434.48
2023-03-16T17:26:50.017Z,100432.34
2023-03-16T17:29:33.992Z,100425.65
2023-03-16T17:32:23.002Z,100427.64
2023-03-16T17:35:21.128Z,100426.08
2023-03-16T17:38:03.817Z,100430.50
2023-03-16T17:46:44.658Z,100442.52
2023-03-16T17:49:32.097Z,100444.40
2023-03-16T18:00:16.163Z,100449.77
2023-03-16T18:03:58.495Z,100459.05
2023-03-16T18:55:17.418Z,100481.46
2023-03-16T18:58:18.790Z,100483.87
2023-03-16T19:01:09.963Z,100483.35
2023-03-16T19:06:56.972Z,100488.23
2023-03-16T20:16:55.006Z,100494.62
2023-03-16T20:48:34.043Z,100484.48
2023-03-16T20:58:18.618Z,100479.52
2023-03-16T21:04:22.306Z,100481.25
2023-03-16T21:06:51.443Z,100487.89
2023-03-16T21:09:45.356Z,100490.77
2023-03-16T21:12:50.335Z,100494.00
2023-03-16T21:19:20.906Z,100495.97
2023-03-16T21:22:37.461Z,100492.20
2023-03-16T21:29:07.434Z,100498.48
2023-03-16T21:31:37.833Z,100497.14
2023-03-16T21:38:25.457Z,100499.41
2023-03-16T21:40:56.939Z,100507.58
2023-03-16T21:46:21.936Z,100513.95
2023-03-16T21:48:55.226Z,100517.23
2023-03-16T21:51:32.105Z,100512.20
2023-03-16T21:55:32.417Z,100512.14
2023-03-16T22:02:02.669Z,100515.25
2023-03-16T22:05:39.983Z,100519.11
2023-03-16T22:08:47.687Z,100519.74
2023-03-16T22:14:30.780Z,100518.66
2023-03-16T22:17:16.723Z,100526.86
2023-03-16T22:23:00.241Z,100531.61
2023-03-16T22:28:55.186Z,100533.71
2023-03-16T22:31:37.312Z,100533.44
2023-03-16T22:34:35.834Z,100535.07
2023-03-16T22:47:55.637Z,100527.29
2023-03-16T22:51:08.290Z,100530.25
2023-03-16T22:53:54.141Z,100527.55
2023-03-16T22:56:26.592Z,100525.04
2023-03-16T22:59:29.112Z,100522.02
2023-03-16T23:02:07.172Z,100519.19
2023-03-16T23:07:36.265Z,100514.50
2023-03-16T23:10:15.115Z,100513.94
2023-03-16T23:12:46.800Z,100515.40
2023-03-16T23:15:23.474Z,100515.25
2023-03-16T23:18:29.693Z,100514.60
2023-03-16T23:21:02.166Z,100521.22
2023-03-16T23:23:30.986Z,100524.71
2023-03-16T23:26:19.044Z,100524.42
2023-03-16T23:29:13.226Z,100520.64
2023-03-16T23:35:43.123Z,100523.63
2023-03-16T23:38:31.415Z,100528.88
2023-03-16T23:41:25.956Z,100527.20
2023-03-16T23:46:53.539Z,100523.98
2023-03-16T23:49:40.416Z,100523.17
2023-03-16T23:52:14.450Z,100522.09
2023-03-16T23:55:05.992Z,100520.66
